Impacts METAR Board
IDs:

KCNW - Waco/Texas State Tec, TX, US

Updated at: 1300 UTC 14 Dec 2019
Potential Impact None Slight Moderate High
Time 14/01Z 14/02Z 14/03Z 14/04Z 14/05Z 14/06Z 14/07Z 14/08Z 14/09Z 14/10Z 14/11Z 14/12Z 14/13Z
Temp50 46 45 41 43 37
Dewpt45 43 41 41 39 37
Altim29.85 29.86 29.87 29.88 29.88 29.90
VIS10 10 10 10 10 3
CIG-- -- -- -- -- --
CoverSKCSKCSKCSKCSKCSKC
FltCatVFRVFRVFRVFRVFRMVFR
WX----------BR
WDir1000000
WSpd3 0 0 0 0 0
WGst-- -- -- -- -- --
Raw hourly METARs
KCNW 140055Z 01003KT 10SM SKC 10/07 A2985
KCNW 140155Z 00000KT 10SM SKC 08/06 A2986
KCNW 140255Z 00000KT 10SM SKC 07/05 A2987
KCNW 140355Z 00000KT 10SM SKC 05/05 A2988
KCNW 140455Z 00000KT 10SM SKC 06/04 A2988







KCNW 141255Z 00000KT 3SM BR SKC 03/03 A2990



Page loaded:  13:38 UTC  |   05:38 AM Pacific  |   06:38 AM Mountain  |   07:38 AM Central  |   08:38 AM Eastern

 

ADVISORIES

FORECASTS

FORECASTS

OBSERVATIONS

USER TOOLS

ABOUT US